createdAt,value
2022-12-06T00:02:15.085Z,4.29
2022-12-06T00:07:19.845Z,4.31
2022-12-06T00:12:24.042Z,4.28
2022-12-06T00:17:27.865Z,4.29
2022-12-06T00:22:34.077Z,4.29
2022-12-06T00:27:39.685Z,4.29
2022-12-06T00:32:43.453Z,4.31
2022-12-06T00:37:45.160Z,4.30
2022-12-06T00:42:49.896Z,4.31
2022-12-06T00:47:51.568Z,4.29
2022-12-06T00:52:55.418Z,4.31
2022-12-06T00:57:57.147Z,4.30
2022-12-06T01:02:58.853Z,4.30
2022-12-06T01:08:04.146Z,4.30
2022-12-06T01:13:06.547Z,4.28
2022-12-06T01:18:08.186Z,4.25
2022-12-06T01:23:12.796Z,4.22
2022-12-06T01:28:14.483Z,4.21
2022-12-06T01:33:18.477Z,4.16
2022-12-06T01:38:20.203Z,4.14
2022-12-06T01:43:48.449Z,4.12
2022-12-06T01:48:58.955Z,4.09
2022-12-06T01:54:02.404Z,4.06
2022-12-06T01:59:06.434Z,4.07
2022-12-06T02:04:10.629Z,4.07
2022-12-06T02:09:16.065Z,4.10
2022-12-06T02:14:24.640Z,4.10
2022-12-06T02:19:59.608Z,4.11
2022-12-06T02:25:34.351Z,4.11
2022-12-06T02:30:50.112Z,4.07
2022-12-06T02:36:00.745Z,4.07
2022-12-06T02:41:12.668Z,4.06
2022-12-06T02:46:18.651Z,4.05
2022-12-06T02:51:20.732Z,4.03
2022-12-06T02:56:26.330Z,4.04
2022-12-06T03:01:33.360Z,4.03
2022-12-06T03:06:44.519Z,4.02
2022-12-06T03:11:48.895Z,4.00
2022-12-06T03:17:00.520Z,4.00
2022-12-06T03:22:09.387Z,3.99
2022-12-06T03:27:16.752Z,4.00
2022-12-06T03:32:21.207Z,3.98
2022-12-06T03:37:27.079Z,3.97
2022-12-06T03:42:34.488Z,3.95
2022-12-06T03:47:47.352Z,3.95
2022-12-06T03:52:54.016Z,3.95
2022-12-06T03:58:01.800Z,3.94
2022-12-06T04:03:04.539Z,3.94
2022-12-06T04:08:06.289Z,3.93
2022-12-06T04:13:08.857Z,3.87
2022-12-06T04:18:14.154Z,3.66
2022-12-06T04:23:17.563Z,3.56
2022-12-06T04:28:39.100Z,3.49
2022-12-06T04:33:59.096Z,3.36
2022-12-06T04:39:01.251Z,3.33
2022-12-06T04:44:06.835Z,3.28
2022-12-06T04:49:10.984Z,3.12
2022-12-06T04:54:15.069Z,2.88
2022-12-06T04:59:20.210Z,2.95
2022-12-06T05:04:22.649Z,2.73
2022-12-06T05:09:26.691Z,2.67
2022-12-06T05:14:28.560Z,2.72
2022-12-06T05:19:32.623Z,2.77
2022-12-06T05:24:39.085Z,2.83
2022-12-06T05:29:43.101Z,2.86
2022-12-06T05:34:47.200Z,2.84
2022-12-06T05:39:48.864Z,2.76
2022-12-06T05:44:52.845Z,2.67
2022-12-06T05:49:57.380Z,2.57
2022-12-06T05:55:00.053Z,2.78
2022-12-06T06:00:02.427Z,2.93
2022-12-06T06:05:11.547Z,3.03
2022-12-06T06:10:18.101Z,3.10
2022-12-06T06:15:22.262Z,3.06
2022-12-06T06:20:24.055Z,3.07
2022-12-06T06:25:30.572Z,3.18
2022-12-06T06:30:34.382Z,3.28
2022-12-06T06:35:44.069Z,3.34
2022-12-06T06:40:51.122Z,3.40
2022-12-06T06:45:56.642Z,3.42
2022-12-06T06:51:11.530Z,3.44
2022-12-06T06:56:13.408Z,3.45
2022-12-06T07:01:23.201Z,3.43
2022-12-06T07:06:27.374Z,3.41
2022-12-06T07:11:32.122Z,3.36
2022-12-06T07:16:33.965Z,3.38
2022-12-06T07:21:35.978Z,3.42
2022-12-06T07:26:43.292Z,3.45
2022-12-06T07:31:45.951Z,3.46
2022-12-06T07:36:47.661Z,3.50
2022-12-06T07:42:07.847Z,3.48
2022-12-06T07:47:27.470Z,3.49
2022-12-06T07:52:38.059Z,3.53
2022-12-06T07:57:43.411Z,3.53
2022-12-06T08:02:48.162Z,3.57
2022-12-06T08:07:49.961Z,3.60
2022-12-06T08:12:54.466Z,3.60
2022-12-06T08:17:56.258Z,3.63
2022-12-06T08:23:00.267Z,3.67
2022-12-06T08:28:04.649Z,3.69
2022-12-06T08:33:09.336Z,3.75
2022-12-06T08:38:13.402Z,3.80
2022-12-06T08:43:16.541Z,3.84
2022-12-06T08:48:19.414Z,3.88
2022-12-06T08:53:23.773Z,3.94
2022-12-06T08:58:28.037Z,3.95
2022-12-06T09:03:32.230Z,3.94
2022-12-06T09:08:36.891Z,3.96
2022-12-06T09:13:39.524Z,3.97
2022-12-06T09:18:41.885Z,4.02
2022-12-06T09:23:44.256Z,4.13
2022-12-06T09:28:53.798Z,4.23
2022-12-06T09:33:58.826Z,4.31
2022-12-06T09:39:08.229Z,4.40
2022-12-06T09:44:31.387Z,4.42
2022-12-06T09:49:38.781Z,4.52
2022-12-06T09:54:54.534Z,4.64
2022-12-06T10:00:22.579Z,4.71
2022-12-06T10:06:06.407Z,4.77
2022-12-06T10:11:12.703Z,4.84
2022-12-06T10:16:23.303Z,4.74
2022-12-06T10:21:45.699Z,4.94
2022-12-06T10:26:57.527Z,5.30
2022-12-06T10:32:18.043Z,5.39
2022-12-06T10:37:42.565Z,5.39
2022-12-06T10:43:09.656Z,5.08
2022-12-06T10:48:28.853Z,4.80
2022-12-06T10:53:33.348Z,4.73
2022-12-06T10:58:49.360Z,4.82
2022-12-06T11:04:09.992Z,4.91
2022-12-06T11:09:24.774Z,5.11
2022-12-06T11:14:35.767Z,5.39
2022-12-06T11:19:45.718Z,5.80
2022-12-06T11:25:22.157Z,7.90
2022-12-06T11:30:28.832Z,8.10
2022-12-06T11:35:31.507Z,7.08
2022-12-06T11:40:48.414Z,6.89
2022-12-06T11:45:52.440Z,7.72
2022-12-06T11:50:55.093Z,8.45
2022-12-06T11:56:30.251Z,9.96
2022-12-06T12:01:46.599Z,10.64
2022-12-06T12:06:49.021Z,8.80
2022-12-06T12:12:02.542Z,10.60
2022-12-06T12:17:15.294Z,9.46
2022-12-06T12:22:35.807Z,7.90
2022-12-06T12:27:47.819Z,7.99
2022-12-06T12:33:13.461Z,7.89
2022-12-06T12:38:25.834Z,8.83
2022-12-06T12:43:32.763Z,9.11
2022-12-06T12:48:43.931Z,9.29
2022-12-06T12:53:46.213Z,9.32
2022-12-06T12:58:52.558Z,9.64
2022-12-06T13:04:01.179Z,9.97
2022-12-06T13:09:06.047Z,10.21
2022-12-06T13:14:22.195Z,10.53
2022-12-06T13:19:31.542Z,10.94
2022-12-06T13:24:38.900Z,10.81
2022-12-06T13:29:48.443Z,10.61
2022-12-06T13:34:58.678Z,11.08
2022-12-06T13:40:05.915Z,10.35
2022-12-06T13:45:27.568Z,10.20
2022-12-06T13:50:34.316Z,10.17
2022-12-06T13:55:48.493Z,10.55
2022-12-06T14:00:50.806Z,10.70
2022-12-06T14:11:27.320Z,9.55
2022-12-06T14:16:31.443Z,8.83
2022-12-06T14:21:39.219Z,8.23
2022-12-06T14:26:47.543Z,7.65
2022-12-06T14:31:51.566Z,7.28
2022-12-06T14:36:58.030Z,6.94
2022-12-06T14:42:33.450Z,6.61
2022-12-06T14:47:40.918Z,6.20
2022-12-06T14:53:01.177Z,5.95
2022-12-06T14:58:17.719Z,5.68
2022-12-06T15:03:25.663Z,5.43
2022-12-06T15:08:27.546Z,5.16
2022-12-06T15:13:32.008Z,4.89
2022-12-06T15:18:55.064Z,4.72
2022-12-06T15:23:59.755Z,4.56
2022-12-06T15:29:01.526Z,4.31
2022-12-06T15:34:23.405Z,4.11
2022-12-06T15:39:26.179Z,3.91
2022-12-06T15:44:30.132Z,3.74
2022-12-06T15:49:32.956Z,3.58
2022-12-06T15:54:39.758Z,3.38
2022-12-06T15:59:41.549Z,3.23
2022-12-06T16:04:45.569Z,3.15
2022-12-06T16:09:48.015Z,3.02
2022-12-06T16:14:53.499Z,2.91
2022-12-06T16:20:13.895Z,2.78
2022-12-06T16:25:16.588Z,2.65
2022-12-06T16:30:31.053Z,2.52
2022-12-06T16:35:32.836Z,2.33
2022-12-06T16:40:35.148Z,2.20
2022-12-06T16:45:44.812Z,2.14
2022-12-06T16:50:47.420Z,2.06
2022-12-06T16:55:51.498Z,1.95
2022-12-06T17:00:54.716Z,1.84
2022-12-06T17:05:59.784Z,1.77
2022-12-06T17:11:22.579Z,1.74
2022-12-06T17:16:24.377Z,1.65
2022-12-06T17:21:28.754Z,1.58
2022-12-06T17:26:34.397Z,1.51
2022-12-06T17:31:39.589Z,1.48
2022-12-06T17:36:47.953Z,1.42
2022-12-06T17:42:08.427Z,1.38
2022-12-06T17:47:10.112Z,1.33
2022-12-06T17:52:13.023Z,1.34
2022-12-06T17:57:18.782Z,1.49
2022-12-06T18:02:24.781Z,1.70
2022-12-06T18:07:29.070Z,1.86
2022-12-06T18:12:35.163Z,2.04
2022-12-06T18:17:37.060Z,2.23
2022-12-06T18:22:38.732Z,2.39
2022-12-06T18:27:40.491Z,2.48
2022-12-06T18:32:44.413Z,2.60
2022-12-06T18:37:46.197Z,2.71
2022-12-06T18:42:53.019Z,2.79
2022-12-06T18:47:58.729Z,2.88
2022-12-06T18:53:06.199Z,2.96
2022-12-06T18:58:07.965Z,2.99
2022-12-06T19:03:17.124Z,3.03
2022-12-06T19:08:18.916Z,3.09
2022-12-06T19:13:20.601Z,3.14
2022-12-06T19:18:22.362Z,3.17
2022-12-06T19:23:28.675Z,3.20
2022-12-06T19:28:38.601Z,3.23
2022-12-06T19:33:43.575Z,3.24
2022-12-06T19:38:50.263Z,3.26
2022-12-06T19:44:15.345Z,3.25
2022-12-06T19:49:23.279Z,3.25
2022-12-06T19:54:31.317Z,3.27
2022-12-06T19:59:39.321Z,3.32
2022-12-06T20:04:46.482Z,3.31
2022-12-06T20:09:48.202Z,3.30
2022-12-06T20:14:52.232Z,3.37
2022-12-06T20:20:01.408Z,3.42
2022-12-06T20:25:03.538Z,3.41
2022-12-06T20:30:06.396Z,3.41
2022-12-06T20:35:11.468Z,3.36
2022-12-06T20:40:13.781Z,3.26
2022-12-06T20:45:20.421Z,3.22
2022-12-06T20:50:25.694Z,3.16
2022-12-06T20:55:29.801Z,3.03
2022-12-06T21:00:34.072Z,3.11
2022-12-06T21:05:45.042Z,3.25
2022-12-06T21:11:20.708Z,3.36
2022-12-06T21:16:13.560Z,3.26
2022-12-06T21:21:25.852Z,2.91
2022-12-06T21:26:28.497Z,2.67
2022-12-06T21:31:34.302Z,2.43
2022-12-06T21:36:36.984Z,2.29
2022-12-06T21:41:41.332Z,2.38
2022-12-06T21:46:45.603Z,2.61
2022-12-06T21:51:47.491Z,2.77
2022-12-06T21:56:51.858Z,2.83
2022-12-06T22:01:54.836Z,2.87
2022-12-06T22:06:57.676Z,2.89
2022-12-06T22:12:01.706Z,2.70
2022-12-06T22:17:05.620Z,2.44
2022-12-06T22:22:10.733Z,2.20
2022-12-06T22:27:16.708Z,2.04
2022-12-06T22:32:18.568Z,1.95
2022-12-06T22:37:28.243Z,2.14
2022-12-06T22:42:33.513Z,2.08
2022-12-06T22:47:37.997Z,1.84
2022-12-06T22:52:42.864Z,1.63
2022-12-06T22:57:46.997Z,1.48
2022-12-06T23:02:48.873Z,1.44
2022-12-06T23:07:50.604Z,1.58
2022-12-06T23:12:52.278Z,1.80
2022-12-06T23:17:56.428Z,2.04
2022-12-06T23:22:58.080Z,1.94
2022-12-06T23:28:02.505Z,1.86
2022-12-06T23:33:06.791Z,1.80
2022-12-06T23:38:10.818Z,1.94
2022-12-06T23:43:15.094Z,2.10
2022-12-06T23:48:21.278Z,2.19
2022-12-06T23:53:25.921Z,2.13
2022-12-06T23:58:29.335Z,1.87
